sensor_id;sensor_type;location;lat;lon;timestamp;P1;durP1;ratioP1;P2;durP2;ratioP2
8536;SDS011;4306;50.210;10.628;2023-02-25T00:02:16;11.60;;;6.68;;
8536;SDS011;4306;50.210;10.628;2023-02-25T00:04:42;13.20;;;5.80;;
8536;SDS011;4306;50.210;10.628;2023-02-25T00:07:09;11.60;;;4.82;;
8536;SDS011;4306;50.210;10.628;2023-02-25T00:09:36;7.83;;;3.73;;
8536;SDS011;4306;50.210;10.628;2023-02-25T00:12:03;12.80;;;6.03;;
8536;SDS011;4306;50.210;10.628;2023-02-25T00:14:30;14.43;;;8.53;;
8536;SDS011;4306;50.210;10.628;2023-02-25T00:16:58;5.82;;;3.00;;
8536;SDS011;4306;50.210;10.628;2023-02-25T00:19:26;7.67;;;3.00;;
8536;SDS011;4306;50.210;10.628;2023-02-25T00:21:53;6.50;;;3.30;;
8536;SDS011;4306;50.210;10.628;2023-02-25T00:24:19;6.27;;;2.10;;
8536;SDS011;4306;50.210;10.628;2023-02-25T00:26:46;5.47;;;2.45;;
8536;SDS011;4306;50.210;10.628;2023-02-25T00:29:14;5.77;;;2.60;;
8536;SDS011;4306;50.210;10.628;2023-02-25T00:31:41;8.57;;;3.50;;
8536;SDS011;4306;50.210;10.628;2023-02-25T00:34:09;4.90;;;2.23;;
8536;SDS011;4306;50.210;10.628;2023-02-25T00:36:36;6.93;;;2.50;;
8536;SDS011;4306;50.210;10.628;2023-02-25T00:39:03;5.60;;;2.50;;
8536;SDS011;4306;50.210;10.628;2023-02-25T00:41:31;6.03;;;2.85;;
8536;SDS011;4306;50.210;10.628;2023-02-25T00:43:58;9.20;;;2.88;;
8536;SDS011;4306;50.210;10.628;2023-02-25T00:46:26;7.03;;;2.60;;
8536;SDS011;4306;50.210;10.628;2023-02-25T00:48:54;10.23;;;2.80;;
8536;SDS011;4306;50.210;10.628;2023-02-25T00:51:23;5.83;;;2.33;;
8536;SDS011;4306;50.210;10.628;2023-02-25T00:53:52;8.43;;;3.33;;
8536;SDS011;4306;50.210;10.628;2023-02-25T00:56:20;7.87;;;2.47;;
8536;SDS011;4306;50.210;10.628;2023-02-25T00:58:49;6.20;;;2.87;;
8536;SDS011;4306;50.210;10.628;2023-02-25T01:01:18;4.25;;;1.98;;
8536;SDS011;4306;50.210;10.628;2023-02-25T01:03:46;7.07;;;2.10;;
8536;SDS011;4306;50.210;10.628;2023-02-25T01:06:14;6.65;;;2.00;;
8536;SDS011;4306;50.210;10.628;2023-02-25T01:08:43;12.47;;;2.33;;
8536;SDS011;4306;50.210;10.628;2023-02-25T01:11:11;5.90;;;1.50;;
8536;SDS011;4306;50.210;10.628;2023-02-25T01:13:40;4.30;;;1.85;;
8536;SDS011;4306;50.210;10.628;2023-02-25T01:16:09;4.85;;;1.88;;
8536;SDS011;4306;50.210;10.628;2023-02-25T01:18:37;5.85;;;1.75;;
8536;SDS011;4306;50.210;10.628;2023-02-25T01:21:04;7.97;;;1.90;;
8536;SDS011;4306;50.210;10.628;2023-02-25T01:23:31;8.00;;;1.80;;
8536;SDS011;4306;50.210;10.628;2023-02-25T01:25:59;4.27;;;1.53;;
8536;SDS011;4306;50.210;10.628;2023-02-25T01:28:29;6.63;;;2.17;;
8536;SDS011;4306;50.210;10.628;2023-02-25T01:30:55;8.23;;;1.85;;
8536;SDS011;4306;50.210;10.628;2023-02-25T01:33:22;6.40;;;2.00;;
8536;SDS011;4306;50.210;10.628;2023-02-25T01:35:49;5.47;;;1.97;;
8536;SDS011;4306;50.210;10.628;2023-02-25T01:38:16;6.78;;;2.72;;
8536;SDS011;4306;50.210;10.628;2023-02-25T01:40:43;6.72;;;2.60;;
8536;SDS011;4306;50.210;10.628;2023-02-25T01:43:13;7.47;;;2.33;;
8536;SDS011;4306;50.210;10.628;2023-02-25T01:45:41;5.50;;;2.40;;
8536;SDS011;4306;50.210;10.628;2023-02-25T01:48:11;5.57;;;1.70;;
8536;SDS011;4306;50.210;10.628;2023-02-25T01:50:42;4.70;;;1.60;;
8536;SDS011;4306;50.210;10.628;2023-02-25T01:53:12;6.50;;;2.00;;
8536;SDS011;4306;50.210;10.628;2023-02-25T01:55:40;7.07;;;2.20;;
8536;SDS011;4306;50.210;10.628;2023-02-25T01:58:08;6.87;;;2.17;;
8536;SDS011;4306;50.210;10.628;2023-02-25T02:00:38;9.57;;;3.50;;
8536;SDS011;4306;50.210;10.628;2023-02-25T02:03:05;7.60;;;3.70;;
8536;SDS011;4306;50.210;10.628;2023-02-25T02:05:43;8.90;;;4.15;;
8536;SDS011;4306;50.210;10.628;2023-02-25T02:08:19;6.20;;;3.03;;
8536;SDS011;4306;50.210;10.628;2023-02-25T02:10:47;6.67;;;2.67;;
8536;SDS011;4306;50.210;10.628;2023-02-25T02:13:14;7.57;;;3.07;;
8536;SDS011;4306;50.210;10.628;2023-02-25T02:15:45;8.60;;;2.97;;
8536;SDS011;4306;50.210;10.628;2023-02-25T02:18:19;5.40;;;2.63;;
8536;SDS011;4306;50.210;10.628;2023-02-25T02:20:50;6.33;;;2.60;;
8536;SDS011;4306;50.210;10.628;2023-02-25T02:23:37;7.40;;;2.53;;
8536;SDS011;4306;50.210;10.628;2023-02-25T02:26:35;7.60;;;2.67;;
8536;SDS011;4306;50.210;10.628;2023-02-25T02:29:36;8.80;;;2.70;;
8536;SDS011;4306;50.210;10.628;2023-02-25T02:32:24;6.43;;;2.33;;
8536;SDS011;4306;50.210;10.628;2023-02-25T02:35:00;7.23;;;2.73;;
8536;SDS011;4306;50.210;10.628;2023-02-25T02:37:35;9.03;;;2.33;;
8536;SDS011;4306;50.210;10.628;2023-02-25T02:40:12;5.50;;;2.40;;
8536;SDS011;4306;50.210;10.628;2023-02-25T02:42:49;7.35;;;2.58;;
8536;SDS011;4306;50.210;10.628;2023-02-25T02:45:23;6.27;;;2.43;;
8536;SDS011;4306;50.210;10.628;2023-02-25T02:48:01;10.23;;;3.10;;
8536;SDS011;4306;50.210;10.628;2023-02-25T02:50:30;6.20;;;2.30;;
8536;SDS011;4306;50.210;10.628;2023-02-25T02:53:02;8.63;;;2.40;;
8536;SDS011;4306;50.210;10.628;2023-02-25T02:55:33;7.75;;;2.58;;
8536;SDS011;4306;50.210;10.628;2023-02-25T02:58:03;7.13;;;2.60;;
8536;SDS011;4306;50.210;10.628;2023-02-25T03:00:33;10.23;;;2.85;;
8536;SDS011;4306;50.210;10.628;2023-02-25T03:03:06;8.65;;;2.35;;
8536;SDS011;4306;50.210;10.628;2023-02-25T03:05:38;7.80;;;2.30;;
8536;SDS011;4306;50.210;10.628;2023-02-25T03:08:08;5.00;;;2.50;;
8536;SDS011;4306;50.210;10.628;2023-02-25T03:10:37;10.47;;;2.77;;
8536;SDS011;4306;50.210;10.628;2023-02-25T03:13:04;9.88;;;2.72;;
8536;SDS011;4306;50.210;10.628;2023-02-25T03:15:32;10.15;;;2.30;;
8536;SDS011;4306;50.210;10.628;2023-02-25T03:18:01;6.75;;;2.30;;
8536;SDS011;4306;50.210;10.628;2023-02-25T03:20:34;9.53;;;1.97;;
8536;SDS011;4306;50.210;10.628;2023-02-25T03:23:06;6.47;;;1.87;;
8536;SDS011;4306;50.210;10.628;2023-02-25T03:25:37;9.80;;;2.10;;
8536;SDS011;4306;50.210;10.628;2023-02-25T03:28:14;5.97;;;2.30;;
8536;SDS011;4306;50.210;10.628;2023-02-25T03:30:47;6.27;;;2.10;;
8536;SDS011;4306;50.210;10.628;2023-02-25T03:33:20;5.33;;;1.80;;
8536;SDS011;4306;50.210;10.628;2023-02-25T03:35:55;6.00;;;1.70;;
8536;SDS011;4306;50.210;10.628;2023-02-25T03:38:23;8.10;;;2.08;;
8536;SDS011;4306;50.210;10.628;2023-02-25T03:40:53;7.30;;;1.80;;
8536;SDS011;4306;50.210;10.628;2023-02-25T03:43:23;4.37;;;1.80;;
8536;SDS011;4306;50.210;10.628;2023-02-25T03:45:53;4.80;;;1.50;;
8536;SDS011;4306;50.210;10.628;2023-02-25T03:48:21;6.38;;;1.58;;
8536;SDS011;4306;50.210;10.628;2023-02-25T03:50:51;7.13;;;1.70;;
8536;SDS011;4306;50.210;10.628;2023-02-25T03:53:24;8.57;;;1.87;;
8536;SDS011;4306;50.210;10.628;2023-02-25T03:55:51;6.32;;;1.80;;
8536;SDS011;4306;50.210;10.628;2023-02-25T03:58:19;4.27;;;1.30;;
8536;SDS011;4306;50.210;10.628;2023-02-25T04:00:46;8.03;;;1.70;;
8536;SDS011;4306;50.210;10.628;2023-02-25T04:03:15;5.17;;;1.97;;
8536;SDS011;4306;50.210;10.628;2023-02-25T04:05:42;5.07;;;2.00;;
8536;SDS011;4306;50.210;10.628;2023-02-25T04:08:11;8.38;;;1.77;;
8536;SDS011;4306;50.210;10.628;2023-02-25T04:10:40;4.87;;;1.77;;
8536;SDS011;4306;50.210;10.628;2023-02-25T04:13:08;7.47;;;1.90;;
8536;SDS011;4306;50.210;10.628;2023-02-25T04:15:35;10.82;;;2.20;;
8536;SDS011;4306;50.210;10.628;2023-02-25T04:18:01;6.23;;;2.00;;
8536;SDS011;4306;50.210;10.628;2023-02-25T04:20:28;5.60;;;1.80;;
8536;SDS011;4306;50.210;10.628;2023-02-25T04:22:56;6.00;;;2.00;;
8536;SDS011;4306;50.210;10.628;2023-02-25T04:25:24;8.70;;;3.00;;
8536;SDS011;4306;50.210;10.628;2023-02-25T04:27:51;6.30;;;1.87;;
8536;SDS011;4306;50.210;10.628;2023-02-25T04:30:18;6.45;;;1.70;;
8536;SDS011;4306;50.210;10.628;2023-02-25T04:32:45;4.77;;;1.50;;
8536;SDS011;4306;50.210;10.628;2023-02-25T04:35:12;4.80;;;1.80;;
8536;SDS011;4306;50.210;10.628;2023-02-25T04:37:39;10.50;;;1.80;;
8536;SDS011;4306;50.210;10.628;2023-02-25T04:40:09;11.17;;;2.10;;
8536;SDS011;4306;50.210;10.628;2023-02-25T04:42:41;4.47;;;1.37;;
8536;SDS011;4306;50.210;10.628;2023-02-25T04:45:09;8.70;;;2.13;;
8536;SDS011;4306;50.210;10.628;2023-02-25T04:47:36;10.00;;;2.37;;
8536;SDS011;4306;50.210;10.628;2023-02-25T04:50:04;9.93;;;2.10;;
8536;SDS011;4306;50.210;10.628;2023-02-25T04:52:32;5.53;;;1.40;;
8536;SDS011;4306;50.210;10.628;2023-02-25T04:54:59;7.03;;;2.30;;
8536;SDS011;4306;50.210;10.628;2023-02-25T04:57:25;5.27;;;1.70;;
8536;SDS011;4306;50.210;10.628;2023-02-25T04:59:54;6.63;;;1.73;;
8536;SDS011;4306;50.210;10.628;2023-02-25T05:02:20;5.72;;;1.80;;
8536;SDS011;4306;50.210;10.628;2023-02-25T05:04:47;7.27;;;2.33;;
8536;SDS011;4306;50.210;10.628;2023-02-25T05:07:14;9.93;;;2.87;;
8536;SDS011;4306;50.210;10.628;2023-02-25T05:09:41;5.65;;;1.85;;
8536;SDS011;4306;50.210;10.628;2023-02-25T05:12:08;11.07;;;2.80;;
8536;SDS011;4306;50.210;10.628;2023-02-25T05:14:35;6.60;;;2.07;;
8536;SDS011;4306;50.210;10.628;2023-02-25T05:17:03;11.77;;;2.30;;
8536;SDS011;4306;50.210;10.628;2023-02-25T05:19:30;6.80;;;2.08;;
8536;SDS011;4306;50.210;10.628;2023-02-25T05:21:57;6.00;;;1.60;;
8536;SDS011;4306;50.210;10.628;2023-02-25T05:24:24;5.82;;;1.90;;
8536;SDS011;4306;50.210;10.628;2023-02-25T05:26:51;6.88;;;1.88;;
8536;SDS011;4306;50.210;10.628;2023-02-25T05:29:18;10.90;;;2.60;;
8536;SDS011;4306;50.210;10.628;2023-02-25T05:31:44;7.00;;;2.05;;
8536;SDS011;4306;50.210;10.628;2023-02-25T05:34:13;11.13;;;2.53;;
8536;SDS011;4306;50.210;10.628;2023-02-25T05:36:41;8.50;;;2.28;;
8536;SDS011;4306;50.210;10.628;2023-02-25T05:39:10;10.90;;;3.33;;
8536;SDS011;4306;50.210;10.628;2023-02-25T05:41:38;5.47;;;1.73;;
8536;SDS011;4306;50.210;10.628;2023-02-25T05:44:05;8.27;;;2.40;;
8536;SDS011;4306;50.210;10.628;2023-02-25T05:46:33;6.60;;;2.70;;
8536;SDS011;4306;50.210;10.628;2023-02-25T05:49:00;7.47;;;3.13;;
8536;SDS011;4306;50.210;10.628;2023-02-25T05:51:28;8.25;;;2.60;;
8536;SDS011;4306;50.210;10.628;2023-02-25T05:53:55;9.00;;;2.40;;
8536;SDS011;4306;50.210;10.628;2023-02-25T05:56:23;8.80;;;2.37;;
8536;SDS011;4306;50.210;10.628;2023-02-25T05:58:52;7.80;;;2.73;;
8536;SDS011;4306;50.210;10.628;2023-02-25T06:01:20;8.32;;;2.92;;
8536;SDS011;4306;50.210;10.628;2023-02-25T06:03:48;11.50;;;2.47;;
8536;SDS011;4306;50.210;10.628;2023-02-25T06:06:16;8.07;;;2.50;;
8536;SDS011;4306;50.210;10.628;2023-02-25T06:08:48;13.33;;;3.37;;
8536;SDS011;4306;50.210;10.628;2023-02-25T06:11:16;5.47;;;2.25;;
8536;SDS011;4306;50.210;10.628;2023-02-25T06:13:46;8.60;;;2.65;;
8536;SDS011;4306;50.210;10.628;2023-02-25T06:16:13;7.65;;;2.30;;
8536;SDS011;4306;50.210;10.628;2023-02-25T06:18:40;8.33;;;3.17;;
8536;SDS011;4306;50.210;10.628;2023-02-25T06:21:08;7.07;;;3.00;;
8536;SDS011;4306;50.210;10.628;2023-02-25T06:23:38;12.48;;;3.85;;
8536;SDS011;4306;50.210;10.628;2023-02-25T06:26:09;7.63;;;3.30;;
8536;SDS011;4306;50.210;10.628;2023-02-25T06:28:37;11.27;;;3.53;;
8536;SDS011;4306;50.210;10.628;2023-02-25T06:31:05;9.23;;;3.20;;
8536;SDS011;4306;50.210;10.628;2023-02-25T06:33:33;8.50;;;3.85;;
8536;SDS011;4306;50.210;10.628;2023-02-25T06:36:00;9.45;;;3.00;;
8536;SDS011;4306;50.210;10.628;2023-02-25T06:38:29;9.32;;;3.30;;
8536;SDS011;4306;50.210;10.628;2023-02-25T06:40:55;8.63;;;2.80;;
8536;SDS011;4306;50.210;10.628;2023-02-25T06:43:24;9.30;;;2.83;;
8536;SDS011;4306;50.210;10.628;2023-02-25T06:45:50;9.90;;;3.20;;
8536;SDS011;4306;50.210;10.628;2023-02-25T06:48:18;12.82;;;3.65;;
8536;SDS011;4306;50.210;10.628;2023-02-25T06:50:44;9.15;;;2.80;;
8536;SDS011;4306;50.210;10.628;2023-02-25T06:53:11;9.97;;;3.30;;
8536;SDS011;4306;50.210;10.628;2023-02-25T06:55:38;10.10;;;3.10;;
8536;SDS011;4306;50.210;10.628;2023-02-25T06:58:05;11.03;;;3.43;;
8536;SDS011;4306;50.210;10.628;2023-02-25T07:00:34;12.07;;;3.27;;
8536;SDS011;4306;50.210;10.628;2023-02-25T07:03:01;8.17;;;2.90;;
8536;SDS011;4306;50.210;10.628;2023-02-25T07:05:29;11.77;;;3.70;;
8536;SDS011;4306;50.210;10.628;2023-02-25T07:07:56;13.50;;;3.50;;
8536;SDS011;4306;50.210;10.628;2023-02-25T07:10:23;11.43;;;4.13;;
8536;SDS011;4306;50.210;10.628;2023-02-25T07:12:50;8.55;;;3.10;;
8536;SDS011;4306;50.210;10.628;2023-02-25T07:15:17;8.07;;;3.70;;
8536;SDS011;4306;50.210;10.628;2023-02-25T07:17:46;12.20;;;3.77;;
8536;SDS011;4306;50.210;10.628;2023-02-25T07:20:13;9.05;;;3.63;;
8536;SDS011;4306;50.210;10.628;2023-02-25T07:22:41;7.77;;;3.30;;
8536;SDS011;4306;50.210;10.628;2023-02-25T07:25:09;7.57;;;3.35;;
8536;SDS011;4306;50.210;10.628;2023-02-25T07:27:38;12.13;;;3.60;;
8536;SDS011;4306;50.210;10.628;2023-02-25T07:30:05;13.03;;;3.23;;
8536;SDS011;4306;50.210;10.628;2023-02-25T07:32:33;6.90;;;3.20;;
8536;SDS011;4306;50.210;10.628;2023-02-25T07:35:02;14.27;;;3.83;;
8536;SDS011;4306;50.210;10.628;2023-02-25T07:37:29;10.50;;;4.30;;
8536;SDS011;4306;50.210;10.628;2023-02-25T07:39:56;14.23;;;4.13;;
8536;SDS011;4306;50.210;10.628;2023-02-25T07:42:24;9.15;;;3.83;;
8536;SDS011;4306;50.210;10.628;2023-02-25T07:44:51;10.05;;;3.80;;
8536;SDS011;4306;50.210;10.628;2023-02-25T07:47:17;11.65;;;4.15;;
8536;SDS011;4306;50.210;10.628;2023-02-25T07:49:45;7.78;;;3.67;;
8536;SDS011;4306;50.210;10.628;2023-02-25T07:52:14;12.68;;;4.10;;
8536;SDS011;4306;50.210;10.628;2023-02-25T07:54:41;12.52;;;3.22;;
8536;SDS011;4306;50.210;10.628;2023-02-25T07:57:08;12.30;;;4.05;;
8536;SDS011;4306;50.210;10.628;2023-02-25T07:59:35;8.98;;;3.20;;
8536;SDS011;4306;50.210;10.628;2023-02-25T08:02:03;9.05;;;3.90;;
8536;SDS011;4306;50.210;10.628;2023-02-25T08:04:30;10.13;;;3.40;;
8536;SDS011;4306;50.210;10.628;2023-02-25T08:06:56;8.50;;;2.85;;
8536;SDS011;4306;50.210;10.628;2023-02-25T08:09:25;10.52;;;3.10;;
8536;SDS011;4306;50.210;10.628;2023-02-25T08:11:51;9.90;;;3.63;;
8536;SDS011;4306;50.210;10.628;2023-02-25T08:14:18;8.10;;;4.53;;
8536;SDS011;4306;50.210;10.628;2023-02-25T08:16:46;10.17;;;6.20;;
8536;SDS011;4306;50.210;10.628;2023-02-25T08:19:13;8.43;;;3.55;;
8536;SDS011;4306;50.210;10.628;2023-02-25T08:21:40;10.70;;;3.40;;
8536;SDS011;4306;50.210;10.628;2023-02-25T08:24:07;10.90;;;4.88;;
8536;SDS011;4306;50.210;10.628;2023-02-25T08:26:35;7.93;;;3.75;;
8536;SDS011;4306;50.210;10.628;2023-02-25T08:29:02;14.57;;;5.27;;
8536;SDS011;4306;50.210;10.628;2023-02-25T08:31:30;11.47;;;5.33;;
8536;SDS011;4306;50.210;10.628;2023-02-25T08:33:57;11.77;;;5.03;;
8536;SDS011;4306;50.210;10.628;2023-02-25T08:36:25;7.43;;;3.53;;
8536;SDS011;4306;50.210;10.628;2023-02-25T08:38:54;15.40;;;4.70;;
8536;SDS011;4306;50.210;10.628;2023-02-25T08:41:24;17.77;;;6.88;;
8536;SDS011;4306;50.210;10.628;2023-02-25T08:43:54;11.65;;;4.03;;
8536;SDS011;4306;50.210;10.628;2023-02-25T08:46:22;12.68;;;4.93;;
8536;SDS011;4306;50.210;10.628;2023-02-25T08:48:52;11.13;;;5.10;;
8536;SDS011;4306;50.210;10.628;2023-02-25T08:51:19;9.50;;;3.55;;
8536;SDS011;4306;50.210;10.628;2023-02-25T08:53:47;12.20;;;5.70;;
8536;SDS011;4306;50.210;10.628;2023-02-25T08:56:15;7.70;;;4.22;;
8536;SDS011;4306;50.210;10.628;2023-02-25T08:58:42;13.07;;;5.50;;
8536;SDS011;4306;50.210;10.628;2023-02-25T09:01:11;8.63;;;3.95;;
8536;SDS011;4306;50.210;10.628;2023-02-25T09:03:39;13.43;;;5.22;;
8536;SDS011;4306;50.210;10.628;2023-02-25T09:06:16;8.35;;;3.85;;
8536;SDS011;4306;50.210;10.628;2023-02-25T09:08:44;10.85;;;3.88;;
8536;SDS011;4306;50.210;10.628;2023-02-25T09:11:11;9.77;;;4.88;;
8536;SDS011;4306;50.210;10.628;2023-02-25T09:13:38;10.75;;;3.33;;
8536;SDS011;4306;50.210;10.628;2023-02-25T09:16:05;5.63;;;2.72;;
8536;SDS011;4306;50.210;10.628;2023-02-25T09:18:34;9.50;;;2.80;;
8536;SDS011;4306;50.210;10.628;2023-02-25T09:21:00;8.32;;;3.17;;
8536;SDS011;4306;50.210;10.628;2023-02-25T09:23:27;8.63;;;4.38;;
8536;SDS011;4306;50.210;10.628;2023-02-25T09:25:54;8.70;;;3.38;;
8536;SDS011;4306;50.210;10.628;2023-02-25T09:28:21;8.90;;;3.03;;
8536;SDS011;4306;50.210;10.628;2023-02-25T09:30:48;8.38;;;3.20;;
8536;SDS011;4306;50.210;10.628;2023-02-25T09:33:15;6.47;;;3.30;;
8536;SDS011;4306;50.210;10.628;2023-02-25T09:35:43;10.10;;;3.38;;
8536;SDS011;4306;50.210;10.628;2023-02-25T09:38:10;7.03;;;3.47;;
8536;SDS011;4306;50.210;10.628;2023-02-25T09:40:38;7.65;;;3.67;;
8536;SDS011;4306;50.210;10.628;2023-02-25T09:43:09;9.02;;;3.42;;
8536;SDS011;4306;50.210;10.628;2023-02-25T09:45:45;8.90;;;3.33;;
8536;SDS011;4306;50.210;10.628;2023-02-25T09:48:14;8.73;;;3.97;;
8536;SDS011;4306;50.210;10.628;2023-02-25T09:50:46;6.65;;;3.60;;
8536;SDS011;4306;50.210;10.628;2023-02-25T09:53:17;16.53;;;7.03;;
8536;SDS011;4306;50.210;10.628;2023-02-25T09:55:49;11.60;;;5.75;;
8536;SDS011;4306;50.210;10.628;2023-02-25T09:58:19;13.52;;;5.97;;
8536;SDS011;4306;50.210;10.628;2023-02-25T10:00:52;8.10;;;4.25;;
8536;SDS011;4306;50.210;10.628;2023-02-25T10:03:37;11.63;;;4.35;;
8536;SDS011;4306;50.210;10.628;2023-02-25T10:06:13;11.02;;;3.70;;
8536;SDS011;4306;50.210;10.628;2023-02-25T10:08:46;8.75;;;4.35;;
8536;SDS011;4306;50.210;10.628;2023-02-25T10:11:23;11.50;;;5.20;;
8536;SDS011;4306;50.210;10.628;2023-02-25T10:13:59;7.07;;;3.72;;
8536;SDS011;4306;50.210;10.628;2023-02-25T10:16:37;9.82;;;4.93;;
8536;SDS011;4306;50.210;10.628;2023-02-25T10:19:11;9.15;;;4.70;;
8536;SDS011;4306;50.210;10.628;2023-02-25T10:22:01;8.00;;;3.80;;
8536;SDS011;4306;50.210;10.628;2023-02-25T10:24:39;9.30;;;4.00;;
8536;SDS011;4306;50.210;10.628;2023-02-25T10:27:14;5.40;;;3.40;;
8536;SDS011;4306;50.210;10.628;2023-02-25T10:29:47;4.97;;;2.67;;
8536;SDS011;4306;50.210;10.628;2023-02-25T10:32:19;4.75;;;2.10;;
8536;SDS011;4306;50.210;10.628;2023-02-25T10:34:49;6.47;;;2.57;;
8536;SDS011;4306;50.210;10.628;2023-02-25T10:37:20;6.32;;;2.70;;
8536;SDS011;4306;50.210;10.628;2023-02-25T10:39:52;5.30;;;2.50;;
8536;SDS011;4306;50.210;10.628;2023-02-25T10:42:22;5.10;;;2.55;;
8536;SDS011;4306;50.210;10.628;2023-02-25T10:44:52;4.80;;;2.58;;
8536;SDS011;4306;50.210;10.628;2023-02-25T10:47:23;5.43;;;2.80;;
8536;SDS011;4306;50.210;10.628;2023-02-25T10:50:14;5.43;;;2.08;;
8536;SDS011;4306;50.210;10.628;2023-02-25T10:52:51;3.78;;;2.22;;
8536;SDS011;4306;50.210;10.628;2023-02-25T10:55:25;7.00;;;3.70;;
8536;SDS011;4306;50.210;10.628;2023-02-25T10:57:56;3.88;;;1.60;;
8536;SDS011;4306;50.210;10.628;2023-02-25T11:00:26;5.53;;;1.80;;
8536;SDS011;4306;50.210;10.628;2023-02-25T11:02:54;3.03;;;1.92;;
8536;SDS011;4306;50.210;10.628;2023-02-25T11:05:31;3.88;;;1.52;;
8536;SDS011;4306;50.210;10.628;2023-02-25T11:08:04;3.95;;;2.03;;
8536;SDS011;4306;50.210;10.628;2023-02-25T11:10:32;2.97;;;1.42;;
8536;SDS011;4306;50.210;10.628;2023-02-25T11:13:00;6.30;;;3.97;;
8536;SDS011;4306;50.210;10.628;2023-02-25T11:15:31;4.53;;;2.13;;
8536;SDS011;4306;50.210;10.628;2023-02-25T11:18:03;3.08;;;1.50;;
8536;SDS011;4306;50.210;10.628;2023-02-25T11:20:33;2.33;;;1.30;;
8536;SDS011;4306;50.210;10.628;2023-02-25T11:23:02;9.15;;;4.10;;
8536;SDS011;4306;50.210;10.628;2023-02-25T11:25:34;2.58;;;1.80;;
8536;SDS011;4306;50.210;10.628;2023-02-25T11:28:04;3.95;;;2.47;;
8536;SDS011;4306;50.210;10.628;2023-02-25T11:30:43;7.25;;;4.93;;
8536;SDS011;4306;50.210;10.628;2023-02-25T11:33:16;5.37;;;3.90;;
8536;SDS011;4306;50.210;10.628;2023-02-25T11:35:53;5.53;;;2.37;;
8536;SDS011;4306;50.210;10.628;2023-02-25T11:38:25;3.23;;;1.43;;
8536;SDS011;4306;50.210;10.628;2023-02-25T11:40:54;1.60;;;1.15;;
8536;SDS011;4306;50.210;10.628;2023-02-25T11:43:22;1.77;;;1.00;;
8536;SDS011;4306;50.210;10.628;2023-02-25T11:45:55;3.50;;;2.30;;
8536;SDS011;4306;50.210;10.628;2023-02-25T11:48:26;4.93;;;1.90;;
8536;SDS011;4306;50.210;10.628;2023-02-25T11:50:56;1.98;;;0.95;;
8536;SDS011;4306;50.210;10.628;2023-02-25T11:53:40;3.13;;;1.73;;
8536;SDS011;4306;50.210;10.628;2023-02-25T11:56:28;25.90;;;11.50;;
8536;SDS011;4306;50.210;10.628;2023-02-25T11:59:02;3.42;;;1.40;;
8536;SDS011;4306;50.210;10.628;2023-02-25T12:01:41;4.07;;;2.40;;
8536;SDS011;4306;50.210;10.628;2023-02-25T12:07:32;3.88;;;2.78;;
8536;SDS011;4306;50.210;10.628;2023-02-25T12:10:26;1.27;;;0.90;;
8536;SDS011;4306;50.210;10.628;2023-02-25T12:16:24;3.28;;;1.25;;
8536;SDS011;4306;50.210;10.628;2023-02-25T12:19:22;1.27;;;0.70;;
8536;SDS011;4306;50.210;10.628;2023-02-25T12:22:22;3.55;;;1.55;;
8536;SDS011;4306;50.210;10.628;2023-02-25T12:25:13;1.83;;;0.90;;
8536;SDS011;4306;50.210;10.628;2023-02-25T12:27:52;1.63;;;0.60;;
8536;SDS011;4306;50.210;10.628;2023-02-25T12:30:40;1.10;;;0.80;;
8536;SDS011;4306;50.210;10.628;2023-02-25T12:36:54;1.02;;;0.65;;
8536;SDS011;4306;50.210;10.628;2023-02-25T12:39:40;3.17;;;0.95;;
8536;SDS011;4306;50.210;10.628;2023-02-25T12:42:18;2.20;;;1.10;;
8536;SDS011;4306;50.210;10.628;2023-02-25T12:45:02;4.53;;;2.28;;
8536;SDS011;4306;50.210;10.628;2023-02-25T12:47:51;1.80;;;1.00;;
8536;SDS011;4306;50.210;10.628;2023-02-25T12:50:41;1.25;;;0.85;;
8536;SDS011;4306;50.210;10.628;2023-02-25T12:53:31;8.60;;;4.68;;
8536;SDS011;4306;50.210;10.628;2023-02-25T12:56:14;17.05;;;9.82;;
8536;SDS011;4306;50.210;10.628;2023-02-25T12:59:01;7.50;;;4.28;;
8536;SDS011;4306;50.210;10.628;2023-02-25T13:04:46;10.30;;;4.78;;
8536;SDS011;4306;50.210;10.628;2023-02-25T13:07:39;7.53;;;3.88;;
8536;SDS011;4306;50.210;10.628;2023-02-25T13:10:32;3.25;;;2.10;;
8536;SDS011;4306;50.210;10.628;2023-02-25T13:13:19;3.97;;;1.35;;
8536;SDS011;4306;50.210;10.628;2023-02-25T13:16:12;2.20;;;0.85;;
8536;SDS011;4306;50.210;10.628;2023-02-25T13:18:51;2.38;;;1.30;;
8536;SDS011;4306;50.210;10.628;2023-02-25T13:21:37;4.20;;;1.70;;
8536;SDS011;4306;50.210;10.628;2023-02-25T13:24:16;2.33;;;1.00;;
8536;SDS011;4306;50.210;10.628;2023-02-25T13:26:58;1.58;;;1.02;;
8536;SDS011;4306;50.210;10.628;2023-02-25T13:29:56;1.15;;;0.75;;
8536;SDS011;4306;50.210;10.628;2023-02-25T13:32:34;2.60;;;0.73;;
8536;SDS011;4306;50.210;10.628;2023-02-25T13:35:20;0.77;;;0.70;;
8536;SDS011;4306;50.210;10.628;2023-02-25T13:38:04;0.80;;;0.65;;
8536;SDS011;4306;50.210;10.628;2023-02-25T13:40:46;4.25;;;2.10;;
8536;SDS011;4306;50.210;10.628;2023-02-25T13:43:21;4.45;;;2.00;;
8536;SDS011;4306;50.210;10.628;2023-02-25T13:46:00;3.95;;;1.02;;
8536;SDS011;4306;50.210;10.628;2023-02-25T13:51:42;2.72;;;1.13;;
8536;SDS011;4306;50.210;10.628;2023-02-25T13:54:25;1.98;;;1.17;;
8536;SDS011;4306;50.210;10.628;2023-02-25T13:57:07;2.83;;;1.00;;
8536;SDS011;4306;50.210;10.628;2023-02-25T14:00:06;2.40;;;1.20;;
8536;SDS011;4306;50.210;10.628;2023-02-25T14:02:58;2.28;;;1.15;;
8536;SDS011;4306;50.210;10.628;2023-02-25T14:11:23;1.20;;;0.90;;
8536;SDS011;4306;50.210;10.628;2023-02-25T14:14:23;1.67;;;0.80;;
8536;SDS011;4306;50.210;10.628;2023-02-25T14:17:10;1.50;;;0.90;;
8536;SDS011;4306;50.210;10.628;2023-02-25T14:19:49;2.15;;;1.10;;
8536;SDS011;4306;50.210;10.628;2023-02-25T14:22:32;4.82;;;2.92;;
8536;SDS011;4306;50.210;10.628;2023-02-25T14:25:13;1.52;;;0.90;;
8536;SDS011;4306;50.210;10.628;2023-02-25T14:27:47;1.03;;;0.77;;
8536;SDS011;4306;50.210;10.628;2023-02-25T14:30:29;2.43;;;0.90;;
8536;SDS011;4306;50.210;10.628;2023-02-25T14:33:07;1.50;;;0.70;;
8536;SDS011;4306;50.210;10.628;2023-02-25T14:35:53;2.00;;;1.10;;
8536;SDS011;4306;50.210;10.628;2023-02-25T14:38:32;5.63;;;1.98;;
8536;SDS011;4306;50.210;10.628;2023-02-25T14:41:19;1.33;;;0.75;;
8536;SDS011;4306;50.210;10.628;2023-02-25T14:43:56;2.22;;;1.25;;
8536;SDS011;4306;50.210;10.628;2023-02-25T14:46:29;5.40;;;2.63;;
8536;SDS011;4306;50.210;10.628;2023-02-25T14:49:01;2.85;;;1.80;;
8536;SDS011;4306;50.210;10.628;2023-02-25T14:54:45;2.83;;;1.90;;
8536;SDS011;4306;50.210;10.628;2023-02-25T14:57:39;2.40;;;1.30;;
8536;SDS011;4306;50.210;10.628;2023-02-25T15:00:23;3.40;;;2.10;;
8536;SDS011;4306;50.210;10.628;2023-02-25T15:06:04;2.60;;;1.20;;
8536;SDS011;4306;50.210;10.628;2023-02-25T15:08:59;1.90;;;1.00;;
8536;SDS011;4306;50.210;10.628;2023-02-25T15:14:42;2.27;;;1.23;;
8536;SDS011;4306;50.210;10.628;2023-02-25T15:17:41;4.73;;;2.87;;
8536;SDS011;4306;50.210;10.628;2023-02-25T15:20:31;3.92;;;3.53;;
8536;SDS011;4306;50.210;10.628;2023-02-25T15:23:06;3.10;;;2.40;;
8536;SDS011;4306;50.210;10.628;2023-02-25T15:25:38;4.67;;;2.50;;
8536;SDS011;4306;50.210;10.628;2023-02-25T15:33:55;2.63;;;1.67;;
8536;SDS011;4306;50.210;10.628;2023-02-25T15:43:16;2.13;;;1.20;;
8536;SDS011;4306;50.210;10.628;2023-02-25T15:49:13;1.23;;;0.70;;
8536;SDS011;4306;50.210;10.628;2023-02-25T15:51:57;3.03;;;1.48;;
8536;SDS011;4306;50.210;10.628;2023-02-25T15:54:45;1.87;;;1.30;;
8536;SDS011;4306;50.210;10.628;2023-02-25T16:03:25;2.57;;;1.80;;
8536;SDS011;4306;50.210;10.628;2023-02-25T16:06:05;1.67;;;1.07;;
8536;SDS011;4306;50.210;10.628;2023-02-25T16:08:41;1.53;;;0.70;;
8536;SDS011;4306;50.210;10.628;2023-02-25T16:11:17;1.83;;;0.83;;
8536;SDS011;4306;50.210;10.628;2023-02-25T16:13:50;0.87;;;0.67;;
8536;SDS011;4306;50.210;10.628;2023-02-25T16:16:18;1.13;;;0.90;;
8536;SDS011;4306;50.210;10.628;2023-02-25T16:18:47;3.90;;;1.20;;
8536;SDS011;4306;50.210;10.628;2023-02-25T16:21:20;2.43;;;1.30;;
8536;SDS011;4306;50.210;10.628;2023-02-25T16:23:50;3.47;;;1.50;;